sensor_id;sensor_type;location;lat;lon;timestamp;temperature;humidity
31837;DHT22;18401;49.344;6.240;2023-09-30T00:01:00;13.00;99.90
31837;DHT22;18401;49.344;6.240;2023-09-30T00:03:26;13.00;99.90
31837;DHT22;18401;49.344;6.240;2023-09-30T00:05:51;12.90;99.90
31837;DHT22;18401;49.344;6.240;2023-09-30T00:08:17;12.80;99.90
31837;DHT22;18401;49.344;6.240;2023-09-30T00:10:43;12.70;99.90
31837;DHT22;18401;49.344;6.240;2023-09-30T00:13:08;12.70;99.90
31837;DHT22;18401;49.344;6.240;2023-09-30T00:15:34;12.70;99.90
31837;DHT22;18401;49.344;6.240;2023-09-30T00:18:00;12.60;99.90
31837;DHT22;18401;49.344;6.240;2023-09-30T00:20:27;12.70;99.90
31837;DHT22;18401;49.344;6.240;2023-09-30T00:22:53;12.70;99.90
31837;DHT22;18401;49.344;6.240;2023-09-30T00:25:18;12.70;99.90
31837;DHT22;18401;49.344;6.240;2023-09-30T00:27:47;12.70;99.90
31837;DHT22;18401;49.344;6.240;2023-09-30T00:30:12;12.60;99.90
31837;DHT22;18401;49.344;6.240;2023-09-30T00:32:38;12.60;99.90
31837;DHT22;18401;49.344;6.240;2023-09-30T00:35:05;12.50;99.90
31837;DHT22;18401;49.344;6.240;2023-09-30T00:37:37;12.50;99.90
31837;DHT22;18401;49.344;6.240;2023-09-30T00:40:03;12.50;99.90
31837;DHT22;18401;49.344;6.240;2023-09-30T00:42:29;12.40;99.90
31837;DHT22;18401;49.344;6.240;2023-09-30T00:44:55;12.50;99.90
31837;DHT22;18401;49.344;6.240;2023-09-30T00:47:20;12.30;99.90
31837;DHT22;18401;49.344;6.240;2023-09-30T00:49:46;12.40;99.90
31837;DHT22;18401;49.344;6.240;2023-09-30T00:52:12;12.50;99.90
31837;DHT22;18401;49.344;6.240;2023-09-30T00:54:39;12.50;99.90
31837;DHT22;18401;49.344;6.240;2023-09-30T00:57:05;12.60;99.90
31837;DHT22;18401;49.344;6.240;2023-09-30T00:59:31;12.60;99.90
31837;DHT22;18401;49.344;6.240;2023-09-30T01:01:59;12.60;99.90
31837;DHT22;18401;49.344;6.240;2023-09-30T01:04:27;12.70;99.90
31837;DHT22;18401;49.344;6.240;2023-09-30T01:06:52;12.70;99.90
31837;DHT22;18401;49.344;6.240;2023-09-30T01:09:18;12.60;99.90
31837;DHT22;18401;49.344;6.240;2023-09-30T01:11:45;12.60;99.90
31837;DHT22;18401;49.344;6.240;2023-09-30T01:14:29;12.60;99.90
31837;DHT22;18401;49.344;6.240;2023-09-30T01:16:56;12.60;99.90
31837;DHT22;18401;49.344;6.240;2023-09-30T01:19:22;12.60;99.90
31837;DHT22;18401;49.344;6.240;2023-09-30T01:21:57;12.70;99.90
31837;DHT22;18401;49.344;6.240;2023-09-30T01:24:26;12.70;99.90
31837;DHT22;18401;49.344;6.240;2023-09-30T01:26:52;12.70;99.90
31837;DHT22;18401;49.344;6.240;2023-09-30T01:29:18;12.70;99.90
31837;DHT22;18401;49.344;6.240;2023-09-30T01:31:44;12.60;99.90
31837;DHT22;18401;49.344;6.240;2023-09-30T01:34:14;12.60;99.90
31837;DHT22;18401;49.344;6.240;2023-09-30T01:36:41;12.60;99.90
31837;DHT22;18401;49.344;6.240;2023-09-30T01:39:07;12.60;99.90
31837;DHT22;18401;49.344;6.240;2023-09-30T01:41:33;12.60;99.90
31837;DHT22;18401;49.344;6.240;2023-09-30T01:43:58;12.50;99.90
31837;DHT22;18401;49.344;6.240;2023-09-30T01:46:24;12.50;99.90
31837;DHT22;18401;49.344;6.240;2023-09-30T01:48:50;12.50;99.90
31837;DHT22;18401;49.344;6.240;2023-09-30T01:51:15;12.40;99.90
31837;DHT22;18401;49.344;6.240;2023-09-30T01:53:41;12.30;99.90
31837;DHT22;18401;49.344;6.240;2023-09-30T01:56:08;12.20;99.90
31837;DHT22;18401;49.344;6.240;2023-09-30T01:58:33;12.10;99.90
31837;DHT22;18401;49.344;6.240;2023-09-30T02:01:03;11.80;99.90
31837;DHT22;18401;49.344;6.240;2023-09-30T02:03:28;11.70;99.90
31837;DHT22;18401;49.344;6.240;2023-09-30T02:05:55;11.70;99.90
31837;DHT22;18401;49.344;6.240;2023-09-30T02:08:21;11.50;99.90
31837;DHT22;18401;49.344;6.240;2023-09-30T02:10:48;11.50;99.90
31837;DHT22;18401;49.344;6.240;2023-09-30T02:13:13;11.50;99.90
31837;DHT22;18401;49.344;6.240;2023-09-30T02:15:42;11.60;99.90
31837;DHT22;18401;49.344;6.240;2023-09-30T02:18:08;11.70;99.90
31837;DHT22;18401;49.344;6.240;2023-09-30T02:20:35;11.40;99.90
31837;DHT22;18401;49.344;6.240;2023-09-30T02:23:10;11.20;99.90
31837;DHT22;18401;49.344;6.240;2023-09-30T02:25:39;11.20;99.90
31837;DHT22;18401;49.344;6.240;2023-09-30T02:28:06;11.30;99.90
31837;DHT22;18401;49.344;6.240;2023-09-30T02:30:32;11.50;99.90
31837;DHT22;18401;49.344;6.240;2023-09-30T02:32:57;11.50;99.90
31837;DHT22;18401;49.344;6.240;2023-09-30T02:35:23;11.50;99.90
31837;DHT22;18401;49.344;6.240;2023-09-30T02:37:49;11.30;99.90
31837;DHT22;18401;49.344;6.240;2023-09-30T02:40:15;11.30;99.90
31837;DHT22;18401;49.344;6.240;2023-09-30T02:42:42;11.30;99.90
31837;DHT22;18401;49.344;6.240;2023-09-30T02:45:09;11.10;99.90
31837;DHT22;18401;49.344;6.240;2023-09-30T02:47:35;10.70;99.90
31837;DHT22;18401;49.344;6.240;2023-09-30T02:50:01;10.00;99.90
31837;DHT22;18401;49.344;6.240;2023-09-30T02:52:27;10.00;99.90
31837;DHT22;18401;49.344;6.240;2023-09-30T02:54:54;10.00;99.90
31837;DHT22;18401;49.344;6.240;2023-09-30T02:57:20;10.10;99.90
31837;DHT22;18401;49.344;6.240;2023-09-30T02:59:47;10.20;99.90
31837;DHT22;18401;49.344;6.240;2023-09-30T03:02:12;10.10;99.90
31837;DHT22;18401;49.344;6.240;2023-09-30T03:04:38;10.00;99.90
31837;DHT22;18401;49.344;6.240;2023-09-30T03:07:04;10.10;99.90
31837;DHT22;18401;49.344;6.240;2023-09-30T03:09:30;10.30;99.90
31837;DHT22;18401;49.344;6.240;2023-09-30T03:11:56;10.30;99.90
31837;DHT22;18401;49.344;6.240;2023-09-30T03:14:22;10.20;99.90
31837;DHT22;18401;49.344;6.240;2023-09-30T03:16:48;10.40;99.90
31837;DHT22;18401;49.344;6.240;2023-09-30T03:19:14;10.50;99.90
31837;DHT22;18401;49.344;6.240;2023-09-30T03:21:42;10.70;99.90
31837;DHT22;18401;49.344;6.240;2023-09-30T03:24:08;10.80;99.90
31837;DHT22;18401;49.344;6.240;2023-09-30T03:26:34;10.80;99.90
31837;DHT22;18401;49.344;6.240;2023-09-30T03:29:00;10.80;99.90
31837;DHT22;18401;49.344;6.240;2023-09-30T03:31:25;10.80;99.90
31837;DHT22;18401;49.344;6.240;2023-09-30T03:33:52;10.80;99.90
31837;DHT22;18401;49.344;6.240;2023-09-30T03:36:21;10.80;99.90
31837;DHT22;18401;49.344;6.240;2023-09-30T03:38:50;10.90;99.90
31837;DHT22;18401;49.344;6.240;2023-09-30T03:41:16;10.80;99.90
31837;DHT22;18401;49.344;6.240;2023-09-30T03:43:44;10.80;99.90
31837;DHT22;18401;49.344;6.240;2023-09-30T03:46:10;10.80;99.90
31837;DHT22;18401;49.344;6.240;2023-09-30T03:48:37;10.80;99.90
31837;DHT22;18401;49.344;6.240;2023-09-30T03:51:13;10.70;99.90
31837;DHT22;18401;49.344;6.240;2023-09-30T03:53:46;10.40;99.90
31837;DHT22;18401;49.344;6.240;2023-09-30T03:56:12;10.30;99.90
31837;DHT22;18401;49.344;6.240;2023-09-30T03:58:42;10.30;99.90
31837;DHT22;18401;49.344;6.240;2023-09-30T04:01:11;10.20;99.90
31837;DHT22;18401;49.344;6.240;2023-09-30T04:03:37;10.20;99.90
31837;DHT22;18401;49.344;6.240;2023-09-30T04:06:05;10.20;99.90
31837;DHT22;18401;49.344;6.240;2023-09-30T04:08:32;10.30;99.90
31837;DHT22;18401;49.344;6.240;2023-09-30T04:11:02;10.30;99.90
31837;DHT22;18401;49.344;6.240;2023-09-30T04:13:30;10.30;99.90
31837;DHT22;18401;49.344;6.240;2023-09-30T04:15:56;10.30;99.90
31837;DHT22;18401;49.344;6.240;2023-09-30T04:18:25;10.30;99.90
31837;DHT22;18401;49.344;6.240;2023-09-30T04:20:54;10.40;99.90
31837;DHT22;18401;49.344;6.240;2023-09-30T04:23:20;10.30;99.90
31837;DHT22;18401;49.344;6.240;2023-09-30T04:25:46;10.30;99.90
31837;DHT22;18401;49.344;6.240;2023-09-30T04:28:12;10.40;99.90
31837;DHT22;18401;49.344;6.240;2023-09-30T04:30:39;10.50;99.90
31837;DHT22;18401;49.344;6.240;2023-09-30T04:33:05;10.60;99.90
31837;DHT22;18401;49.344;6.240;2023-09-30T04:35:31;10.60;99.90
31837;DHT22;18401;49.344;6.240;2023-09-30T04:37:57;10.70;99.90
31837;DHT22;18401;49.344;6.240;2023-09-30T04:40:27;10.60;99.90
31837;DHT22;18401;49.344;6.240;2023-09-30T04:42:52;10.60;99.90
31837;DHT22;18401;49.344;6.240;2023-09-30T04:45:24;10.70;99.90
31837;DHT22;18401;49.344;6.240;2023-09-30T04:47:51;10.80;99.90
31837;DHT22;18401;49.344;6.240;2023-09-30T04:50:17;10.80;99.90
31837;DHT22;18401;49.344;6.240;2023-09-30T04:52:43;10.80;99.90
31837;DHT22;18401;49.344;6.240;2023-09-30T04:55:10;10.80;99.90
31837;DHT22;18401;49.344;6.240;2023-09-30T04:57:37;10.80;99.90
31837;DHT22;18401;49.344;6.240;2023-09-30T05:00:03;10.70;99.90
31837;DHT22;18401;49.344;6.240;2023-09-30T05:02:36;10.60;99.90
31837;DHT22;18401;49.344;6.240;2023-09-30T05:05:02;10.60;99.90
31837;DHT22;18401;49.344;6.240;2023-09-30T05:07:31;10.60;99.90
31837;DHT22;18401;49.344;6.240;2023-09-30T05:09:56;10.60;99.90
31837;DHT22;18401;49.344;6.240;2023-09-30T05:12:23;10.50;99.90
31837;DHT22;18401;49.344;6.240;2023-09-30T05:14:48;10.50;99.90
31837;DHT22;18401;49.344;6.240;2023-09-30T05:17:14;10.50;99.90
31837;DHT22;18401;49.344;6.240;2023-09-30T05:19:41;10.50;99.90
31837;DHT22;18401;49.344;6.240;2023-09-30T05:22:06;10.60;99.90
31837;DHT22;18401;49.344;6.240;2023-09-30T05:24:32;10.60;99.90
31837;DHT22;18401;49.344;6.240;2023-09-30T05:26:57;10.70;99.90
31837;DHT22;18401;49.344;6.240;2023-09-30T05:29:23;10.70;99.90
31837;DHT22;18401;49.344;6.240;2023-09-30T05:31:49;10.80;99.90
31837;DHT22;18401;49.344;6.240;2023-09-30T05:34:14;10.80;99.90
31837;DHT22;18401;49.344;6.240;2023-09-30T05:36:40;10.80;99.90
31837;DHT22;18401;49.344;6.240;2023-09-30T05:39:06;10.80;99.90
31837;DHT22;18401;49.344;6.240;2023-09-30T05:41:31;10.80;99.90
31837;DHT22;18401;49.344;6.240;2023-09-30T05:43:57;10.90;99.90
31837;DHT22;18401;49.344;6.240;2023-09-30T05:46:25;10.90;99.90
31837;DHT22;18401;49.344;6.240;2023-09-30T05:48:52;11.00;99.90
31837;DHT22;18401;49.344;6.240;2023-09-30T05:51:18;11.00;99.90
31837;DHT22;18401;49.344;6.240;2023-09-30T05:53:44;11.00;99.90
31837;DHT22;18401;49.344;6.240;2023-09-30T05:56:12;11.10;99.90
31837;DHT22;18401;49.344;6.240;2023-09-30T05:58:43;11.10;99.90
31837;DHT22;18401;49.344;6.240;2023-09-30T06:01:09;11.10;99.90
31837;DHT22;18401;49.344;6.240;2023-09-30T06:03:36;11.20;99.90
31837;DHT22;18401;49.344;6.240;2023-09-30T06:06:11;11.30;99.90
31837;DHT22;18401;49.344;6.240;2023-09-30T06:08:38;11.40;99.90
31837;DHT22;18401;49.344;6.240;2023-09-30T06:11:04;11.50;99.90
31837;DHT22;18401;49.344;6.240;2023-09-30T06:13:29;11.50;99.90
31837;DHT22;18401;49.344;6.240;2023-09-30T06:15:57;11.60;99.90
31837;DHT22;18401;49.344;6.240;2023-09-30T06:18:23;11.70;99.90
31837;DHT22;18401;49.344;6.240;2023-09-30T06:20:49;11.80;99.90
31837;DHT22;18401;49.344;6.240;2023-09-30T06:23:16;11.80;99.90
31837;DHT22;18401;49.344;6.240;2023-09-30T06:25:42;11.90;99.90
31837;DHT22;18401;49.344;6.240;2023-09-30T06:28:08;12.00;99.90
31837;DHT22;18401;49.344;6.240;2023-09-30T06:30:34;12.10;99.90
31837;DHT22;18401;49.344;6.240;2023-09-30T06:33:01;12.00;99.90
31837;DHT22;18401;49.344;6.240;2023-09-30T06:35:27;12.00;99.90
31837;DHT22;18401;49.344;6.240;2023-09-30T06:37:55;12.20;99.90
31837;DHT22;18401;49.344;6.240;2023-09-30T06:40:20;12.30;99.90
31837;DHT22;18401;49.344;6.240;2023-09-30T06:42:47;12.30;99.90
31837;DHT22;18401;49.344;6.240;2023-09-30T06:45:12;12.30;99.90
31837;DHT22;18401;49.344;6.240;2023-09-30T06:47:40;12.40;99.90
31837;DHT22;18401;49.344;6.240;2023-09-30T06:50:12;12.40;99.90
31837;DHT22;18401;49.344;6.240;2023-09-30T06:52:42;12.50;99.90
31837;DHT22;18401;49.344;6.240;2023-09-30T06:55:11;12.40;99.90
31837;DHT22;18401;49.344;6.240;2023-09-30T06:57:39;12.40;99.90
31837;DHT22;18401;49.344;6.240;2023-09-30T07:00:10;12.50;99.90
31837;DHT22;18401;49.344;6.240;2023-09-30T07:02:37;12.50;99.90
31837;DHT22;18401;49.344;6.240;2023-09-30T07:05:14;12.50;99.90
31837;DHT22;18401;49.344;6.240;2023-09-30T07:07:41;12.60;99.90
31837;DHT22;18401;49.344;6.240;2023-09-30T07:10:09;12.70;99.90
31837;DHT22;18401;49.344;6.240;2023-09-30T07:12:35;12.80;99.90
31837;DHT22;18401;49.344;6.240;2023-09-30T07:15:02;12.80;99.90
31837;DHT22;18401;49.344;6.240;2023-09-30T07:17:28;12.90;99.90
31837;DHT22;18401;49.344;6.240;2023-09-30T07:19:54;13.00;99.90
31837;DHT22;18401;49.344;6.240;2023-09-30T07:22:19;13.00;99.90
31837;DHT22;18401;49.344;6.240;2023-09-30T07:24:45;12.90;99.90
31837;DHT22;18401;49.344;6.240;2023-09-30T07:27:10;13.10;99.90
31837;DHT22;18401;49.344;6.240;2023-09-30T07:29:36;13.10;99.90
31837;DHT22;18401;49.344;6.240;2023-09-30T07:32:02;13.20;99.90
31837;DHT22;18401;49.344;6.240;2023-09-30T07:34:28;13.10;99.90
31837;DHT22;18401;49.344;6.240;2023-09-30T07:36:53;13.20;99.90
31837;DHT22;18401;49.344;6.240;2023-09-30T07:39:20;13.30;99.90
31837;DHT22;18401;49.344;6.240;2023-09-30T07:41:46;13.50;99.90
31837;DHT22;18401;49.344;6.240;2023-09-30T07:44:12;13.60;99.90
31837;DHT22;18401;49.344;6.240;2023-09-30T07:46:38;13.40;99.90
31837;DHT22;18401;49.344;6.240;2023-09-30T07:49:03;13.70;99.90
31837;DHT22;18401;49.344;6.240;2023-09-30T07:51:29;13.80;99.90
31837;DHT22;18401;49.344;6.240;2023-09-30T07:53:57;13.80;99.90
31837;DHT22;18401;49.344;6.240;2023-09-30T07:56:23;13.80;99.90
31837;DHT22;18401;49.344;6.240;2023-09-30T07:58:49;13.90;99.90
31837;DHT22;18401;49.344;6.240;2023-09-30T08:01:15;14.10;99.90
31837;DHT22;18401;49.344;6.240;2023-09-30T08:03:41;14.10;99.90
31837;DHT22;18401;49.344;6.240;2023-09-30T08:06:09;14.10;99.90
31837;DHT22;18401;49.344;6.240;2023-09-30T08:08:36;14.40;99.90
31837;DHT22;18401;49.344;6.240;2023-09-30T08:11:02;14.30;99.90
31837;DHT22;18401;49.344;6.240;2023-09-30T08:13:28;14.10;99.90
31837;DHT22;18401;49.344;6.240;2023-09-30T08:15:58;14.10;99.90
31837;DHT22;18401;49.344;6.240;2023-09-30T08:18:23;14.10;99.90
31837;DHT22;18401;49.344;6.240;2023-09-30T08:20:49;14.10;99.90
31837;DHT22;18401;49.344;6.240;2023-09-30T08:23:15;13.80;99.90
31837;DHT22;18401;49.344;6.240;2023-09-30T08:25:41;13.60;99.90
31837;DHT22;18401;49.344;6.240;2023-09-30T08:28:07;13.70;99.90
31837;DHT22;18401;49.344;6.240;2023-09-30T08:30:35;13.60;99.90
31837;DHT22;18401;49.344;6.240;2023-09-30T08:33:01;13.50;99.90
31837;DHT22;18401;49.344;6.240;2023-09-30T08:35:29;13.50;99.90
31837;DHT22;18401;49.344;6.240;2023-09-30T08:37:54;13.60;99.90
31837;DHT22;18401;49.344;6.240;2023-09-30T08:40:21;13.80;99.90
31837;DHT22;18401;49.344;6.240;2023-09-30T08:42:51;13.90;99.90
31837;DHT22;18401;49.344;6.240;2023-09-30T08:45:17;14.10;99.90
31837;DHT22;18401;49.344;6.240;2023-09-30T08:47:43;14.10;99.90
31837;DHT22;18401;49.344;6.240;2023-09-30T08:50:09;14.20;99.90
31837;DHT22;18401;49.344;6.240;2023-09-30T08:52:38;14.20;99.90
31837;DHT22;18401;49.344;6.240;2023-09-30T08:55:07;14.40;99.90
31837;DHT22;18401;49.344;6.240;2023-09-30T08:57:33;14.60;99.90
31837;DHT22;18401;49.344;6.240;2023-09-30T09:00:02;14.60;99.90
31837;DHT22;18401;49.344;6.240;2023-09-30T09:02:28;14.90;99.90
31837;DHT22;18401;49.344;6.240;2023-09-30T09:04:54;15.00;99.90
31837;DHT22;18401;49.344;6.240;2023-09-30T09:07:20;15.20;99.90
31837;DHT22;18401;49.344;6.240;2023-09-30T09:10:05;15.30;99.90
31837;DHT22;18401;49.344;6.240;2023-09-30T09:12:34;15.30;99.90
31837;DHT22;18401;49.344;6.240;2023-09-30T09:15:00;15.40;99.90
31837;DHT22;18401;49.344;6.240;2023-09-30T09:17:40;15.60;99.90
31837;DHT22;18401;49.344;6.240;2023-09-30T09:20:07;15.60;99.90
31837;DHT22;18401;49.344;6.240;2023-09-30T09:22:42;15.60;99.90
31837;DHT22;18401;49.344;6.240;2023-09-30T09:25:09;15.40;99.90
31837;DHT22;18401;49.344;6.240;2023-09-30T09:27:35;15.70;99.90
31837;DHT22;18401;49.344;6.240;2023-09-30T09:30:21;15.80;99.90
31837;DHT22;18401;49.344;6.240;2023-09-30T09:33:03;16.00;99.90
31837;DHT22;18401;49.344;6.240;2023-09-30T09:35:31;16.50;99.90
31837;DHT22;18401;49.344;6.240;2023-09-30T09:38:02;16.70;99.90
31837;DHT22;18401;49.344;6.240;2023-09-30T09:40:35;17.20;99.90
31837;DHT22;18401;49.344;6.240;2023-09-30T09:43:02;16.60;99.90
31837;DHT22;18401;49.344;6.240;2023-09-30T09:45:34;16.20;99.90
31837;DHT22;18401;49.344;6.240;2023-09-30T09:48:00;16.50;99.90
31837;DHT22;18401;49.344;6.240;2023-09-30T09:50:26;17.40;99.90
31837;DHT22;18401;49.344;6.240;2023-09-30T09:52:53;17.70;99.90
31837;DHT22;18401;49.344;6.240;2023-09-30T09:55:25;17.80;99.90
31837;DHT22;18401;49.344;6.240;2023-09-30T09:57:51;17.60;99.90
31837;DHT22;18401;49.344;6.240;2023-09-30T10:00:19;17.50;99.90
31837;DHT22;18401;49.344;6.240;2023-09-30T10:02:46;18.10;99.90
31837;DHT22;18401;49.344;6.240;2023-09-30T10:05:14;18.60;99.90
31837;DHT22;18401;49.344;6.240;2023-09-30T10:08:01;19.50;99.90
31837;DHT22;18401;49.344;6.240;2023-09-30T10:10:28;19.90;99.90
31837;DHT22;18401;49.344;6.240;2023-09-30T10:12:55;19.60;99.90
31837;DHT22;18401;49.344;6.240;2023-09-30T10:18:16;19.10;99.90
31837;DHT22;18401;49.344;6.240;2023-09-30T10:20:43;18.80;99.90
31837;DHT22;18401;49.344;6.240;2023-09-30T10:23:20;19.20;99.90
31837;DHT22;18401;49.344;6.240;2023-09-30T10:25:47;19.70;99.90
31837;DHT22;18401;49.344;6.240;2023-09-30T10:31:18;19.80;99.90
31837;DHT22;18401;49.344;6.240;2023-09-30T10:36:36;20.80;99.90
31837;DHT22;18401;49.344;6.240;2023-09-30T10:39:03;20.80;99.90
31837;DHT22;18401;49.344;6.240;2023-09-30T10:41:56;20.70;99.90
31837;DHT22;18401;49.344;6.240;2023-09-30T10:46:58;22.10;99.90
31837;DHT22;18401;49.344;6.240;2023-09-30T10:51:51;22.50;99.90
31837;DHT22;18401;49.344;6.240;2023-09-30T10:54:28;22.30;99.90
31837;DHT22;18401;49.344;6.240;2023-09-30T10:56:55;23.10;93.10
31837;DHT22;18401;49.344;6.240;2023-09-30T10:59:25;23.70;77.90
31837;DHT22;18401;49.344;6.240;2023-09-30T11:01:52;22.50;91.40
31837;DHT22;18401;49.344;6.240;2023-09-30T11:04:21;21.50;78.90
31837;DHT22;18401;49.344;6.240;2023-09-30T11:06:46;21.70;99.90
31837;DHT22;18401;49.344;6.240;2023-09-30T11:09:22;22.00;99.90
31837;DHT22;18401;49.344;6.240;2023-09-30T11:11:52;20.30;99.90
31837;DHT22;18401;49.344;6.240;2023-09-30T11:14:30;20.10;99.90
31837;DHT22;18401;49.344;6.240;2023-09-30T11:17:00;20.20;99.90
31837;DHT22;18401;49.344;6.240;2023-09-30T11:19:37;20.70;99.90
31837;DHT22;18401;49.344;6.240;2023-09-30T11:22:11;21.40;99.90
31837;DHT22;18401;49.344;6.240;2023-09-30T11:24:37;22.50;99.90
31837;DHT22;18401;49.344;6.240;2023-09-30T11:27:02;21.80;87.80
31837;DHT22;18401;49.344;6.240;2023-09-30T11:29:29;20.80;99.90
31837;DHT22;18401;49.344;6.240;2023-09-30T11:31:55;20.20;99.90
31837;DHT22;18401;49.344;6.240;2023-09-30T11:34:34;20.60;99.90
31837;DHT22;18401;49.344;6.240;2023-09-30T11:37:02;21.30;99.80
31837;DHT22;18401;49.344;6.240;2023-09-30T11:39:28;20.70;82.60
31837;DHT22;18401;49.344;6.240;2023-09-30T11:41:55;20.80;81.40
31837;DHT22;18401;49.344;6.240;2023-09-30T11:44:25;20.70;90.80
31837;DHT22;18401;49.344;6.240;2023-09-30T11:47:01;20.60;80.70
31837;DHT22;18401;49.344;6.240;2023-09-30T11:49:31;21.10;63.80
31837;DHT22;18401;49.344;6.240;2023-09-30T11:52:05;21.30;61.30
31837;DHT22;18401;49.344;6.240;2023-09-30T11:54:36;22.00;37.80
31837;DHT22;18401;49.344;6.240;2023-09-30T11:57:15;21.70;65.80
31837;DHT22;18401;49.344;6.240;2023-09-30T11:59:43;21.50;97.00
31837;DHT22;18401;49.344;6.240;2023-09-30T12:02:10;21.30;64.20
31837;DHT22;18401;49.344;6.240;2023-09-30T12:04:37;21.50;58.20
31837;DHT22;18401;49.344;6.240;2023-09-30T12:07:03;21.70;58.10
31837;DHT22;18401;49.344;6.240;2023-09-30T12:09:29;21.50;71.70
31837;DHT22;18401;49.344;6.240;2023-09-30T12:11:55;22.00;60.90
31837;DHT22;18401;49.344;6.240;2023-09-30T12:14:23;22.50;34.60
31837;DHT22;18401;49.344;6.240;2023-09-30T12:16:50;23.70;19.90
31837;DHT22;18401;49.344;6.240;2023-09-30T12:19:19;22.40;7.40
31837;DHT22;18401;49.344;6.240;2023-09-30T12:21:45;20.30;62.50
31837;DHT22;18401;49.344;6.240;2023-09-30T12:24:12;19.60;82.80
31837;DHT22;18401;49.344;6.240;2023-09-30T12:26:45;19.10;94.40
31837;DHT22;18401;49.344;6.240;2023-09-30T12:29:17;18.90;99.90
31837;DHT22;18401;49.344;6.240;2023-09-30T12:31:50;18.80;99.90
31837;DHT22;18401;49.344;6.240;2023-09-30T12:34:16;19.00;99.90
31837;DHT22;18401;49.344;6.240;2023-09-30T12:36:43;19.10;99.90
31837;DHT22;18401;49.344;6.240;2023-09-30T12:39:09;19.10;93.30
31837;DHT22;18401;49.344;6.240;2023-09-30T12:41:42;19.20;99.90
31837;DHT22;18401;49.344;6.240;2023-09-30T12:44:09;19.80;99.50
31837;DHT22;18401;49.344;6.240;2023-09-30T12:46:36;20.70;69.20
31837;DHT22;18401;49.344;6.240;2023-09-30T12:49:09;21.50;46.30
31837;DHT22;18401;49.344;6.240;2023-09-30T12:51:35;21.90;21.00
31837;DHT22;18401;49.344;6.240;2023-09-30T12:54:02;21.60;13.10
31837;DHT22;18401;49.344;6.240;2023-09-30T12:56:28;21.00;21.60
31837;DHT22;18401;49.344;6.240;2023-09-30T12:58:57;21.00;26.60
31837;DHT22;18401;49.344;6.240;2023-09-30T13:01:23;20.60;35.50
31837;DHT22;18401;49.344;6.240;2023-09-30T13:03:49;20.60;30.00
31837;DHT22;18401;49.344;6.240;2023-09-30T13:06:15;20.80;34.00
31837;DHT22;18401;49.344;6.240;2023-09-30T13:08:42;21.20;44.20
31837;DHT22;18401;49.344;6.240;2023-09-30T13:11:09;21.50;22.20
31837;DHT22;18401;49.344;6.240;2023-09-30T13:13:37;21.30;23.30
31837;DHT22;18401;49.344;6.240;2023-09-30T13:16:03;20.60;31.40
31837;DHT22;18401;49.344;6.240;2023-09-30T13:18:31;20.40;39.30
31837;DHT22;18401;49.344;6.240;2023-09-30T13:20:57;20.70;43.00
31837;DHT22;18401;49.344;6.240;2023-09-30T13:23:22;20.30;52.80
31837;DHT22;18401;49.344;6.240;2023-09-30T13:25:48;20.30;60.90
31837;DHT22;18401;49.344;6.240;2023-09-30T13:28:14;20.30;48.30
31837;DHT22;18401;49.344;6.240;2023-09-30T13:30:39;20.90;59.70
31837;DHT22;18401;49.344;6.240;2023-09-30T13:33:06;21.80;33.60
31837;DHT22;18401;49.344;6.240;2023-09-30T13:35:31;22.90;28.40
31837;DHT22;18401;49.344;6.240;2023-09-30T13:37:57;22.90;15.30
31837;DHT22;18401;49.344;6.240;2023-09-30T13:40:23;22.10;8.50
31837;DHT22;18401;49.344;6.240;2023-09-30T13:42:49;21.80;15.70
31837;DHT22;18401;49.344;6.240;2023-09-30T13:45:14;21.70;9.10
31837;DHT22;18401;49.344;6.240;2023-09-30T13:47:43;20.70;17.00
31837;DHT22;18401;49.344;6.240;2023-09-30T13:50:10;20.50;30.40
31837;DHT22;18401;49.344;6.240;2023-09-30T13:52:36;21.10;41.60
31837;DHT22;18401;49.344;6.240;2023-09-30T13:55:02;21.80;33.80
31837;DHT22;18401;49.344;6.240;2023-09-30T13:57:28;22.30;22.90
31837;DHT22;18401;49.344;6.240;2023-09-30T13:59:55;22.20;20.20
31837;DHT22;18401;49.344;6.240;2023-09-30T14:02:20;22.90;11.10
31837;DHT22;18401;49.344;6.240;2023-09-30T14:04:46;23.10;1.00
31837;DHT22;18401;49.344;6.240;2023-09-30T14:07:12;23.30;1.00
31837;DHT22;18401;49.344;6.240;2023-09-30T14:09:37;22.90;1.00
31837;DHT22;18401;49.344;6.240;2023-09-30T14:12:03;22.80;1.00
31837;DHT22;18401;49.344;6.240;2023-09-30T14:14:31;22.80;1.00
31837;DHT22;18401;49.344;6.240;2023-09-30T14:16:58;23.10;1.00
31837;DHT22;18401;49.344;6.240;2023-09-30T14:19:23;23.10;1.00
31837;DHT22;18401;49.344;6.240;2023-09-30T14:21:49;22.60;1.00
31837;DHT22;18401;49.344;6.240;2023-09-30T14:24:15;22.60;1.00
31837;DHT22;18401;49.344;6.240;2023-09-30T14:26:40;23.30;1.00
31837;DHT22;18401;49.344;6.240;2023-09-30T14:29:06;24.00;1.00
31837;DHT22;18401;49.344;6.240;2023-09-30T14:31:32;24.40;1.00
31837;DHT22;18401;49.344;6.240;2023-09-30T14:33:57;23.30;1.00
31837;DHT22;18401;49.344;6.240;2023-09-30T14:36:23;23.00;1.00
31837;DHT22;18401;49.344;6.240;2023-09-30T14:38:49;23.50;1.00
31837;DHT22;18401;49.344;6.240;2023-09-30T14:41:15;23.50;1.00
31837;DHT22;18401;49.344;6.240;2023-09-30T14:43:41;23.70;1.00
31837;DHT22;18401;49.344;6.240;2023-09-30T14:46:07;23.60;1.00
31837;DHT22;18401;49.344;6.240;2023-09-30T14:48:34;23.60;1.00
31837;DHT22;18401;49.344;6.240;2023-09-30T14:50:59;23.40;1.00
31837;DHT22;18401;49.344;6.240;2023-09-30T14:53:25;22.40;1.00
31837;DHT22;18401;49.344;6.240;2023-09-30T14:55:51;22.10;1.00
31837;DHT22;18401;49.344;6.240;2023-09-30T14:58:17;22.00;1.00
31837;DHT22;18401;49.344;6.240;2023-09-30T15:00:43;21.80;1.00
31837;DHT22;18401;49.344;6.240;2023-09-30T15:03:08;21.90;1.00
31837;DHT22;18401;49.344;6.240;2023-09-30T15:05:34;21.80;1.00
31837;DHT22;18401;49.344;6.240;2023-09-30T15:08:01;21.40;1.00
31837;DHT22;18401;49.344;6.240;2023-09-30T15:10:28;21.00;1.00
31837;DHT22;18401;49.344;6.240;2023-09-30T15:12:54;21.20;1.00
31837;DHT22;18401;49.344;6.240;2023-09-30T15:15:20;21.10;1.00
31837;DHT22;18401;49.344;6.240;2023-09-30T15:17:46;21.10;1.00
31837;DHT22;18401;49.344;6.240;2023-09-30T15:20:12;21.50;1.00
31837;DHT22;18401;49.344;6.240;2023-09-30T15:22:38;21.20;1.00
31837;DHT22;18401;49.344;6.240;2023-09-30T15:25:04;21.10;1.00
31837;DHT22;18401;49.344;6.240;2023-09-30T15:27:30;21.20;1.00
31837;DHT22;18401;49.344;6.240;2023-09-30T15:29:58;21.20;1.00
31837;DHT22;18401;49.344;6.240;2023-09-30T15:32:24;21.10;1.00
31837;DHT22;18401;49.344;6.240;2023-09-30T15:34:50;21.00;1.00
31837;DHT22;18401;49.344;6.240;2023-09-30T15:37:15;21.20;1.00
31837;DHT22;18401;49.344;6.240;2023-09-30T15:39:41;21.00;1.00
31837;DHT22;18401;49.344;6.240;2023-09-30T15:42:08;20.90;1.00
31837;DHT22;18401;49.344;6.240;2023-09-30T15:44:40;20.80;1.00
31837;DHT22;18401;49.344;6.240;2023-09-30T15:47:07;21.00;1.00